createdAt,value
2018-11-27T00:01:20.278Z,6.30
2018-11-27T00:06:13.538Z,6.30
2018-11-27T00:11:06.758Z,6.30
2018-11-27T00:16:00.010Z,6.30
2018-11-27T00:20:53.321Z,6.20
2018-11-27T00:25:46.609Z,6.20
2018-11-27T00:30:39.870Z,6.20
2018-11-27T00:35:33.171Z,6.20
2018-11-27T00:40:26.480Z,6.20
2018-11-27T00:45:20.675Z,6.10
2018-11-27T00:50:17.334Z,6.10
2018-11-27T00:55:13.149Z,6.20
2018-11-27T01:00:11.325Z,6.20
2018-11-27T01:05:06.021Z,6.20
2018-11-27T01:09:59.289Z,6.10
2018-11-27T01:14:52.600Z,6.30
2018-11-27T01:19:45.875Z,6.30
2018-11-27T01:24:39.135Z,6.30
2018-11-27T01:29:32.403Z,6.40
2018-11-27T01:34:25.681Z,6.20
2018-11-27T01:39:18.926Z,6.30
2018-11-27T01:44:12.223Z,6.30
2018-11-27T01:49:06.603Z,6.30
2018-11-27T01:53:59.847Z,6.30
2018-11-27T01:58:53.085Z,6.20
2018-11-27T02:03:46.375Z,5.90
2018-11-27T02:08:39.637Z,5.90
2018-11-27T02:13:32.925Z,5.80
2018-11-27T02:18:26.225Z,5.70
2018-11-27T02:23:19.479Z,5.60
2018-11-27T02:28:12.774Z,5.50
2018-11-27T02:33:06.222Z,5.40
2018-11-27T02:37:59.518Z,5.40
2018-11-27T02:42:52.768Z,5.40
2018-11-27T02:47:47.058Z,5.40
2018-11-27T02:52:40.362Z,5.30
2018-11-27T02:57:33.693Z,5.30
2018-11-27T03:02:26.955Z,5.30
2018-11-27T03:07:20.912Z,5.20
2018-11-27T03:12:14.187Z,5.20
2018-11-27T03:17:07.509Z,5.20
2018-11-27T03:22:00.757Z,5.30
2018-11-27T03:26:54.023Z,5.30
2018-11-27T03:31:47.297Z,5.30
2018-11-27T03:36:41.387Z,5.20
2018-11-27T03:41:35.189Z,5.20
2018-11-27T03:46:28.446Z,5.20
2018-11-27T03:51:21.725Z,5.20
2018-11-27T03:56:15.023Z,5.10
2018-11-27T04:01:08.317Z,5.10
2018-11-27T04:06:01.610Z,5.10
2018-11-27T04:10:54.863Z,5.10
2018-11-27T04:15:48.175Z,5.10
2018-11-27T04:20:41.429Z,5.10
2018-11-27T04:25:34.745Z,5.10
2018-11-27T04:30:28.041Z,5.10
2018-11-27T04:35:22.089Z,5.10
2018-11-27T04:40:19.843Z,5.00
2018-11-27T04:45:17.683Z,5.00
2018-11-27T04:50:13.623Z,5.00
2018-11-27T04:55:09.486Z,5.00
2018-11-27T05:00:02.798Z,5.00
2018-11-27T05:04:56.103Z,4.90
2018-11-27T05:09:49.395Z,4.90
2018-11-27T05:14:42.672Z,4.80
2018-11-27T05:19:35.954Z,4.80
2018-11-27T05:24:29.233Z,4.80
2018-11-27T05:29:22.503Z,4.80
2018-11-27T05:34:15.751Z,4.90
2018-11-27T05:39:09.520Z,4.90
2018-11-27T05:44:02.958Z,4.80
2018-11-27T05:48:56.246Z,4.70
2018-11-27T05:53:49.499Z,4.70
2018-11-27T05:58:42.751Z,4.70
2018-11-27T06:03:36.039Z,4.70
2018-11-27T06:08:29.850Z,4.60
2018-11-27T06:13:23.122Z,4.50
2018-11-27T06:18:16.411Z,4.40
2018-11-27T06:23:09.694Z,4.40
2018-11-27T06:28:05.544Z,4.50
2018-11-27T06:32:58.868Z,4.40
2018-11-27T06:37:52.136Z,4.60
2018-11-27T06:42:45.419Z,4.80
2018-11-27T06:47:38.770Z,4.90
2018-11-27T06:52:32.061Z,4.90
2018-11-27T06:57:25.361Z,5.10
2018-11-27T07:02:18.642Z,5.10
2018-11-27T07:07:11.882Z,4.90
2018-11-27T07:12:05.494Z,4.80
2018-11-27T07:16:58.724Z,4.70
2018-11-27T07:21:52.000Z,4.70
2018-11-27T07:26:45.288Z,4.60
2018-11-27T07:31:39.193Z,4.60
2018-11-27T07:36:33.177Z,4.50
2018-11-27T07:41:26.430Z,4.50
2018-11-27T07:46:19.682Z,4.40
2018-11-27T07:51:12.981Z,4.50
2018-11-27T07:56:06.487Z,4.50
2018-11-27T08:01:00.593Z,4.60
2018-11-27T08:05:53.863Z,4.60
2018-11-27T08:10:48.446Z,4.70
2018-11-27T08:15:41.841Z,4.80
2018-11-27T08:20:35.497Z,4.80
2018-11-27T08:25:29.359Z,4.80
2018-11-27T08:30:23.785Z,4.80
2018-11-27T08:35:19.800Z,4.90
2018-11-27T08:40:14.609Z,5.00
2018-11-27T08:45:11.698Z,5.10
2018-11-27T08:50:09.292Z,5.30
2018-11-27T08:55:02.707Z,5.40
2018-11-27T08:59:56.050Z,5.00
2018-11-27T09:04:49.297Z,5.20
2018-11-27T09:09:42.561Z,5.60
2018-11-27T09:14:35.823Z,5.50
2018-11-27T09:19:29.108Z,5.50
2018-11-27T09:24:22.448Z,5.50
2018-11-27T09:29:15.723Z,5.60
2018-11-27T09:34:09.025Z,5.70
2018-11-27T09:39:02.327Z,6.00
2018-11-27T09:43:55.687Z,6.00
2018-11-27T09:48:49.070Z,6.10
2018-11-27T09:53:42.375Z,6.10
2018-11-27T09:58:35.688Z,6.00
2018-11-27T10:03:28.951Z,5.90
2018-11-27T10:08:22.197Z,5.80
2018-11-27T10:13:15.482Z,6.20
2018-11-27T10:18:08.758Z,6.00
2018-11-27T10:23:02.009Z,6.10
2018-11-27T10:27:55.284Z,5.80
2018-11-27T10:34:13.360Z,5.90
2018-11-27T10:39:08.367Z,6.00
2018-11-27T10:44:01.610Z,6.10
2018-11-27T10:48:54.929Z,6.20
2018-11-27T10:53:48.199Z,6.10
2018-11-27T10:58:41.568Z,6.10
2018-11-27T11:03:34.869Z,6.30
2018-11-27T11:08:28.143Z,6.70
2018-11-27T11:13:21.482Z,6.70
2018-11-27T11:18:14.824Z,6.80
2018-11-27T11:23:08.106Z,6.60
2018-11-27T11:28:01.350Z,6.80
2018-11-27T11:32:54.691Z,6.90
2018-11-27T11:37:48.835Z,7.00
2018-11-27T11:42:42.160Z,7.00
2018-11-27T11:47:35.407Z,6.90
2018-11-27T11:52:28.691Z,6.80
2018-11-27T11:57:21.976Z,6.70
2018-11-27T12:02:15.270Z,6.70
2018-11-27T12:07:08.575Z,6.90
2018-11-27T12:12:02.980Z,6.90
2018-11-27T12:16:56.268Z,7.10
2018-11-27T12:21:49.622Z,7.10
2018-11-27T12:26:42.872Z,6.90
2018-11-27T12:31:36.195Z,7.20
2018-11-27T12:36:29.496Z,7.60
2018-11-27T12:41:22.780Z,7.30
2018-11-27T12:46:16.117Z,7.20
2018-11-27T12:51:09.847Z,7.20
2018-11-27T12:56:02.843Z,8.60
2018-11-27T13:00:56.135Z,6.90
2018-11-27T13:05:49.485Z,6.90
2018-11-27T13:10:42.756Z,7.00
2018-11-27T13:15:38.002Z,7.00
2018-11-27T13:20:31.312Z,7.10
2018-11-27T13:25:25.185Z,7.10
2018-11-27T13:30:55.871Z,6.90
2018-11-27T13:35:49.233Z,6.80
2018-11-27T13:40:42.546Z,6.50
2018-11-27T13:45:36.833Z,6.20
2018-11-27T13:50:30.158Z,6.10
2018-11-27T13:55:23.519Z,6.00
2018-11-27T14:00:18.293Z,6.10
2018-11-27T14:05:13.997Z,6.30
2018-11-27T14:10:09.805Z,6.40
2018-11-27T14:15:03.191Z,6.30
2018-11-27T14:19:56.470Z,6.20
2018-11-27T14:24:49.713Z,6.20
2018-11-27T14:29:43.110Z,6.00
2018-11-27T14:34:36.432Z,5.90
2018-11-27T14:39:29.737Z,6.10
2018-11-27T14:44:23.005Z,6.20
2018-11-27T14:49:16.283Z,6.00
2018-11-27T14:54:09.574Z,5.90
2018-11-27T14:59:04.094Z,5.80
2018-11-27T15:03:57.417Z,5.70
2018-11-27T15:08:50.739Z,5.60
2018-11-27T15:13:43.998Z,5.40
2018-11-27T15:18:37.297Z,5.40
2018-11-27T15:23:30.576Z,5.30
2018-11-27T15:28:23.914Z,5.20
2018-11-27T15:33:18.829Z,5.10
2018-11-27T15:38:11.336Z,5.00
2018-11-27T15:43:04.946Z,5.00
2018-11-27T15:47:58.294Z,4.90
2018-11-27T15:52:51.576Z,4.80
2018-11-27T15:57:45.634Z,4.70
2018-11-27T16:02:38.945Z,4.60
2018-11-27T16:07:32.229Z,4.60
2018-11-27T16:12:25.576Z,4.60
2018-11-27T16:17:18.905Z,4.60
2018-11-27T16:22:12.231Z,4.50
2018-11-27T16:27:05.580Z,4.60
2018-11-27T16:31:58.806Z,4.50
2018-11-27T16:36:52.106Z,4.60
2018-11-27T16:41:45.466Z,4.80
2018-11-27T16:46:38.803Z,4.90
2018-11-27T16:51:32.041Z,4.90
2018-11-27T16:56:25.854Z,5.00
2018-11-27T17:01:19.666Z,5.00
2018-11-27T17:06:12.973Z,5.00
2018-11-27T17:11:06.452Z,5.10
2018-11-27T17:15:59.751Z,5.00
2018-11-27T17:20:53.063Z,5.00
2018-11-27T17:25:46.415Z,4.90
2018-11-27T17:30:44.123Z,4.80
2018-11-27T17:35:37.500Z,4.70
2018-11-27T17:40:30.802Z,4.60
2018-11-27T17:45:24.131Z,4.60
2018-11-27T17:50:17.873Z,4.50
2018-11-27T17:55:12.438Z,4.50
2018-11-27T18:00:29.795Z,4.50
2018-11-27T18:05:23.125Z,4.50
2018-11-27T18:10:16.405Z,4.40
2018-11-27T18:15:14.339Z,4.40
2018-11-27T18:20:10.472Z,4.30
2018-11-27T18:25:03.853Z,4.10
2018-11-27T18:29:57.164Z,4.00
2018-11-27T18:34:50.489Z,3.90
2018-11-27T18:39:43.784Z,3.90
2018-11-27T18:44:37.061Z,3.90
2018-11-27T18:49:30.351Z,3.80
2018-11-27T18:54:23.702Z,3.80
2018-11-27T18:59:17.023Z,3.70
2018-11-27T19:04:10.319Z,3.60
2018-11-27T19:09:06.146Z,3.60
2018-11-27T19:13:59.463Z,3.60
2018-11-27T19:18:52.891Z,3.50
2018-11-27T19:23:46.168Z,3.50
2018-11-27T19:28:39.448Z,3.40
2018-11-27T19:33:32.721Z,3.40
2018-11-27T19:38:25.996Z,3.30
2018-11-27T19:43:19.278Z,3.20
2018-11-27T19:48:13.970Z,3.20
2018-11-27T19:53:12.261Z,3.10
2018-11-27T19:58:05.395Z,3.10
2018-11-27T20:02:58.687Z,3.00
2018-11-27T20:07:52.125Z,3.00
2018-11-27T20:12:46.109Z,3.00
2018-11-27T20:17:39.389Z,2.90
2018-11-27T20:22:32.685Z,2.90
2018-11-27T20:27:25.923Z,2.80
2018-11-27T20:32:19.223Z,2.90
2018-11-27T20:37:12.501Z,2.80
2018-11-27T20:42:05.941Z,2.80
2018-11-27T20:46:59.247Z,2.70
2018-11-27T20:51:52.535Z,2.70
2018-11-27T20:56:45.809Z,2.60
2018-11-27T21:01:39.160Z,2.70
2018-11-27T21:06:32.663Z,2.70
2018-11-27T21:11:26.049Z,2.60
2018-11-27T21:16:19.437Z,2.60
2018-11-27T21:21:12.708Z,2.50
2018-11-27T21:26:06.116Z,2.40
2018-11-27T21:30:59.379Z,2.40
2018-11-27T21:35:52.650Z,2.40
2018-11-27T21:40:45.940Z,2.30
2018-11-27T21:45:39.245Z,2.30
2018-11-27T21:50:38.275Z,2.30
2018-11-27T21:55:31.555Z,2.20
2018-11-27T22:00:25.667Z,2.20
2018-11-27T22:05:18.961Z,2.20
2018-11-27T22:10:19.987Z,2.20
2018-11-27T22:15:20.417Z,2.10
2018-11-27T22:20:13.739Z,2.10
2018-11-27T22:25:09.089Z,2.10
2018-11-27T22:30:02.416Z,2.10
2018-11-27T22:34:55.707Z,2.10
2018-11-27T22:39:49.947Z,2.10
2018-11-27T22:44:43.361Z,2.00
2018-11-27T22:49:36.633Z,2.00
2018-11-27T22:54:30.005Z,2.10
2018-11-27T22:59:23.637Z,2.00
2018-11-27T23:04:16.998Z,2.10
2018-11-27T23:09:12.516Z,2.10
2018-11-27T23:14:06.011Z,2.00
2018-11-27T23:18:59.321Z,2.10
2018-11-27T23:23:52.654Z,2.00
2018-11-27T23:28:45.977Z,2.00
2018-11-27T23:33:39.327Z,2.10
2018-11-27T23:38:33.412Z,2.00
2018-11-27T23:43:26.769Z,2.00
2018-11-27T23:48:20.032Z,2.10
2018-11-27T23:53:13.350Z,2.10
2018-11-27T23:58:07.209Z,2.10
